sensor_id;sensor_type;location;lat;lon;timestamp;temperature;humidity
13375;DHT22;6756;51.354;15.754;2024-01-07T00:01:22;-1.40;7.80
13375;DHT22;6756;51.354;15.754;2024-01-07T00:05:22;-1.50;2.90
13375;DHT22;6756;51.354;15.754;2024-01-07T00:09:23;-1.60;2.90
13375;DHT22;6756;51.354;15.754;2024-01-07T00:13:24;-1.60;6.50
13375;DHT22;6756;51.354;15.754;2024-01-07T00:17:25;-1.60;10.80
13375;DHT22;6756;51.354;15.754;2024-01-07T00:21:26;-1.60;13.20
13375;DHT22;6756;51.354;15.754;2024-01-07T00:25:26;-1.60;13.70
13375;DHT22;6756;51.354;15.754;2024-01-07T00:29:30;-1.60;9.80
13375;DHT22;6756;51.354;15.754;2024-01-07T00:33:31;-1.70;6.40
13375;DHT22;6756;51.354;15.754;2024-01-07T00:37:32;-1.70;4.00
13375;DHT22;6756;51.354;15.754;2024-01-07T00:41:35;-1.70;8.50
13375;DHT22;6756;51.354;15.754;2024-01-07T00:45:36;-1.80;15.70
13375;DHT22;6756;51.354;15.754;2024-01-07T00:49:36;-1.90;16.10
13375;DHT22;6756;51.354;15.754;2024-01-07T00:53:37;-1.90;22.50
13375;DHT22;6756;51.354;15.754;2024-01-07T00:57:38;-1.90;22.50
13375;DHT22;6756;51.354;15.754;2024-01-07T01:01:39;-1.90;19.80
13375;DHT22;6756;51.354;15.754;2024-01-07T01:05:40;-1.90;17.20
13375;DHT22;6756;51.354;15.754;2024-01-07T01:09:40;-1.80;12.60
13375;DHT22;6756;51.354;15.754;2024-01-07T01:13:41;-1.80;4.50
13375;DHT22;6756;51.354;15.754;2024-01-07T01:17:42;-1.80;3.10
13375;DHT22;6756;51.354;15.754;2024-01-07T01:21:43;-1.80;1.00
13375;DHT22;6756;51.354;15.754;2024-01-07T01:25:44;-1.80;1.00
13375;DHT22;6756;51.354;15.754;2024-01-07T01:29:45;-1.80;1.00
13375;DHT22;6756;51.354;15.754;2024-01-07T01:33:45;-1.80;1.00
13375;DHT22;6756;51.354;15.754;2024-01-07T01:37:46;-1.80;1.00
13375;DHT22;6756;51.354;15.754;2024-01-07T01:41:47;-1.80;1.00
13375;DHT22;6756;51.354;15.754;2024-01-07T01:45:48;-1.80;1.00
13375;DHT22;6756;51.354;15.754;2024-01-07T01:49:48;-1.80;1.00
13375;DHT22;6756;51.354;15.754;2024-01-07T01:53:50;-1.90;1.00
13375;DHT22;6756;51.354;15.754;2024-01-07T01:57:53;-1.90;1.00
13375;DHT22;6756;51.354;15.754;2024-01-07T02:01:54;-2.00;1.00
13375;DHT22;6756;51.354;15.754;2024-01-07T02:05:56;-2.00;1.00
13375;DHT22;6756;51.354;15.754;2024-01-07T02:09:59;-2.00;1.00
13375;DHT22;6756;51.354;15.754;2024-01-07T02:13:59;-2.00;1.00
13375;DHT22;6756;51.354;15.754;2024-01-07T02:18:00;-2.00;1.00
13375;DHT22;6756;51.354;15.754;2024-01-07T02:22:01;-2.00;1.00
13375;DHT22;6756;51.354;15.754;2024-01-07T02:26:02;-2.10;1.00
13375;DHT22;6756;51.354;15.754;2024-01-07T02:30:04;-2.10;1.00
13375;DHT22;6756;51.354;15.754;2024-01-07T02:34:05;-2.10;1.00
13375;DHT22;6756;51.354;15.754;2024-01-07T02:38:06;-2.20;1.00
13375;DHT22;6756;51.354;15.754;2024-01-07T02:42:07;-2.20;8.80
13375;DHT22;6756;51.354;15.754;2024-01-07T02:46:08;-2.30;1.00
13375;DHT22;6756;51.354;15.754;2024-01-07T02:50:09;-2.30;1.00
13375;DHT22;6756;51.354;15.754;2024-01-07T02:54:10;-2.30;1.00
13375;DHT22;6756;51.354;15.754;2024-01-07T02:58:10;-2.30;1.00
13375;DHT22;6756;51.354;15.754;2024-01-07T03:02:11;-2.30;1.00
13375;DHT22;6756;51.354;15.754;2024-01-07T03:06:12;-2.40;1.00
13375;DHT22;6756;51.354;15.754;2024-01-07T03:10:13;-2.40;1.00
13375;DHT22;6756;51.354;15.754;2024-01-07T03:14:13;-2.40;1.00
13375;DHT22;6756;51.354;15.754;2024-01-07T03:18:17;-2.50;1.00
13375;DHT22;6756;51.354;15.754;2024-01-07T03:22:18;-2.50;1.00
13375;DHT22;6756;51.354;15.754;2024-01-07T03:26:19;-2.50;1.00
13375;DHT22;6756;51.354;15.754;2024-01-07T03:30:20;-2.40;1.00
13375;DHT22;6756;51.354;15.754;2024-01-07T03:34:21;-2.40;1.00
13375;DHT22;6756;51.354;15.754;2024-01-07T03:38:22;-2.40;1.00
13375;DHT22;6756;51.354;15.754;2024-01-07T03:42:25;-2.40;1.00
13375;DHT22;6756;51.354;15.754;2024-01-07T03:46:26;-2.50;1.00
13375;DHT22;6756;51.354;15.754;2024-01-07T03:50:27;-2.50;1.00
13375;DHT22;6756;51.354;15.754;2024-01-07T03:54:27;-2.60;1.30
13375;DHT22;6756;51.354;15.754;2024-01-07T03:58:28;-2.60;2.20
13375;DHT22;6756;51.354;15.754;2024-01-07T04:02:29;-2.70;3.70
13375;DHT22;6756;51.354;15.754;2024-01-07T04:06:30;-2.70;3.00
13375;DHT22;6756;51.354;15.754;2024-01-07T04:10:33;-2.70;3.90
13375;DHT22;6756;51.354;15.754;2024-01-07T04:14:35;-2.70;8.40
13375;DHT22;6756;51.354;15.754;2024-01-07T04:18:35;-2.80;13.10
13375;DHT22;6756;51.354;15.754;2024-01-07T04:22:36;-2.80;20.60
13375;DHT22;6756;51.354;15.754;2024-01-07T04:26:37;-2.80;18.40
13375;DHT22;6756;51.354;15.754;2024-01-07T04:30:38;-2.80;4.80
13375;DHT22;6756;51.354;15.754;2024-01-07T04:34:38;-2.80;1.00
13375;DHT22;6756;51.354;15.754;2024-01-07T04:38:39;-2.70;1.00
13375;DHT22;6756;51.354;15.754;2024-01-07T04:42:40;-2.70;1.00
13375;DHT22;6756;51.354;15.754;2024-01-07T04:46:41;-2.70;1.00
13375;DHT22;6756;51.354;15.754;2024-01-07T04:50:44;-2.80;1.00
13375;DHT22;6756;51.354;15.754;2024-01-07T04:54:45;-2.80;1.00
13375;DHT22;6756;51.354;15.754;2024-01-07T04:58:46;-2.80;1.00
13375;DHT22;6756;51.354;15.754;2024-01-07T05:02:47;-2.80;1.00
13375;DHT22;6756;51.354;15.754;2024-01-07T05:06:51;-2.80;1.00
13375;DHT22;6756;51.354;15.754;2024-01-07T05:10:51;-2.80;1.00
13375;DHT22;6756;51.354;15.754;2024-01-07T05:14:55;-2.80;1.00
13375;DHT22;6756;51.354;15.754;2024-01-07T05:18:56;-2.70;1.00
13375;DHT22;6756;51.354;15.754;2024-01-07T05:22:57;-2.80;1.00
13375;DHT22;6756;51.354;15.754;2024-01-07T05:26:57;-2.70;1.00
13375;DHT22;6756;51.354;15.754;2024-01-07T05:30:58;-2.70;1.00
13375;DHT22;6756;51.354;15.754;2024-01-07T05:34:59;-2.70;1.00
13375;DHT22;6756;51.354;15.754;2024-01-07T05:39:00;-2.70;1.00
13375;DHT22;6756;51.354;15.754;2024-01-07T05:43:03;-2.80;1.00
13375;DHT22;6756;51.354;15.754;2024-01-07T05:47:07;-2.70;1.00
13375;DHT22;6756;51.354;15.754;2024-01-07T05:51:08;-2.80;1.00
13375;DHT22;6756;51.354;15.754;2024-01-07T05:55:09;-2.80;1.00
13375;DHT22;6756;51.354;15.754;2024-01-07T05:59:10;-2.80;1.00
13375;DHT22;6756;51.354;15.754;2024-01-07T06:03:11;-2.80;1.00
13375;DHT22;6756;51.354;15.754;2024-01-07T06:07:12;-2.80;1.00
13375;DHT22;6756;51.354;15.754;2024-01-07T06:11:12;-2.80;1.00
13375;DHT22;6756;51.354;15.754;2024-01-07T06:15:19;-2.80;1.00
13375;DHT22;6756;51.354;15.754;2024-01-07T06:19:20;-2.80;1.00
13375;DHT22;6756;51.354;15.754;2024-01-07T06:23:21;-2.80;1.00
13375;DHT22;6756;51.354;15.754;2024-01-07T06:27:21;-2.80;1.00
13375;DHT22;6756;51.354;15.754;2024-01-07T06:31:23;-2.80;1.00
13375;DHT22;6756;51.354;15.754;2024-01-07T06:35:24;-2.80;1.00
13375;DHT22;6756;51.354;15.754;2024-01-07T06:39:25;-2.90;1.00
13375;DHT22;6756;51.354;15.754;2024-01-07T06:43:29;-2.80;1.00
13375;DHT22;6756;51.354;15.754;2024-01-07T06:47:29;-2.80;1.00
13375;DHT22;6756;51.354;15.754;2024-01-07T06:51:30;-2.80;1.00
13375;DHT22;6756;51.354;15.754;2024-01-07T06:55:31;-2.90;1.00
13375;DHT22;6756;51.354;15.754;2024-01-07T06:59:35;-2.90;1.00
13375;DHT22;6756;51.354;15.754;2024-01-07T07:03:40;-2.90;1.00
13375;DHT22;6756;51.354;15.754;2024-01-07T07:07:41;-3.00;1.00
13375;DHT22;6756;51.354;15.754;2024-01-07T07:11:42;-3.00;1.00
13375;DHT22;6756;51.354;15.754;2024-01-07T07:15:43;-3.10;1.00
13375;DHT22;6756;51.354;15.754;2024-01-07T07:19:44;-3.10;1.00
13375;DHT22;6756;51.354;15.754;2024-01-07T07:23:44;-3.10;1.00
13375;DHT22;6756;51.354;15.754;2024-01-07T07:27:45;-3.00;1.00
13375;DHT22;6756;51.354;15.754;2024-01-07T07:31:46;-3.10;1.00
13375;DHT22;6756;51.354;15.754;2024-01-07T07:35:49;-3.10;1.00
13375;DHT22;6756;51.354;15.754;2024-01-07T07:39:50;-3.10;1.00
13375;DHT22;6756;51.354;15.754;2024-01-07T07:43:57;-3.10;1.00
13375;DHT22;6756;51.354;15.754;2024-01-07T07:47:57;-3.10;1.00
13375;DHT22;6756;51.354;15.754;2024-01-07T07:51:59;-3.10;1.00
13375;DHT22;6756;51.354;15.754;2024-01-07T07:56:05;-3.10;1.00
13375;DHT22;6756;51.354;15.754;2024-01-07T08:00:07;-3.20;1.00
13375;DHT22;6756;51.354;15.754;2024-01-07T08:04:08;-3.20;1.00
13375;DHT22;6756;51.354;15.754;2024-01-07T08:08:11;-3.20;1.00
13375;DHT22;6756;51.354;15.754;2024-01-07T08:12:12;-3.10;1.00
13375;DHT22;6756;51.354;15.754;2024-01-07T08:16:22;-3.10;1.00
13375;DHT22;6756;51.354;15.754;2024-01-07T08:20:23;-3.10;1.00
13375;DHT22;6756;51.354;15.754;2024-01-07T08:24:24;-3.10;1.00
13375;DHT22;6756;51.354;15.754;2024-01-07T08:28:25;-3.00;1.00
13375;DHT22;6756;51.354;15.754;2024-01-07T08:32:25;-3.00;1.00
13375;DHT22;6756;51.354;15.754;2024-01-07T08:36:26;-3.00;1.00
13375;DHT22;6756;51.354;15.754;2024-01-07T08:40:27;-3.00;1.00
13375;DHT22;6756;51.354;15.754;2024-01-07T08:44:30;-2.90;1.00
13375;DHT22;6756;51.354;15.754;2024-01-07T08:48:31;-2.90;1.00
13375;DHT22;6756;51.354;15.754;2024-01-07T08:52:32;-2.80;1.00
13375;DHT22;6756;51.354;15.754;2024-01-07T08:56:35;-2.90;1.00
13375;DHT22;6756;51.354;15.754;2024-01-07T09:00:36;-2.90;1.00
13375;DHT22;6756;51.354;15.754;2024-01-07T09:04:37;-2.90;1.00
13375;DHT22;6756;51.354;15.754;2024-01-07T09:08:38;-2.90;1.00
13375;DHT22;6756;51.354;15.754;2024-01-07T09:12:39;-2.90;1.00
13375;DHT22;6756;51.354;15.754;2024-01-07T09:16:40;-2.90;1.00
13375;DHT22;6756;51.354;15.754;2024-01-07T09:20:44;-2.90;1.00
13375;DHT22;6756;51.354;15.754;2024-01-07T09:24:44;-3.00;1.00
13375;DHT22;6756;51.354;15.754;2024-01-07T09:28:48;-2.90;1.00
13375;DHT22;6756;51.354;15.754;2024-01-07T09:32:49;-2.90;1.00
13375;DHT22;6756;51.354;15.754;2024-01-07T09:36:51;-2.90;1.00
13375;DHT22;6756;51.354;15.754;2024-01-07T09:40:53;-2.90;1.00
13375;DHT22;6756;51.354;15.754;2024-01-07T09:45:00;-2.90;1.00
13375;DHT22;6756;51.354;15.754;2024-01-07T09:49:07;-3.00;1.00
13375;DHT22;6756;51.354;15.754;2024-01-07T09:53:15;-3.10;1.00
13375;DHT22;6756;51.354;15.754;2024-01-07T09:57:16;-3.40;1.00
13375;DHT22;6756;51.354;15.754;2024-01-07T10:01:18;-3.50;1.00
13375;DHT22;6756;51.354;15.754;2024-01-07T10:05:18;-3.60;1.00
13375;DHT22;6756;51.354;15.754;2024-01-07T10:09:23;-3.60;1.00
13375;DHT22;6756;51.354;15.754;2024-01-07T10:13:26;-3.50;1.00
13375;DHT22;6756;51.354;15.754;2024-01-07T10:17:26;-3.50;1.00
13375;DHT22;6756;51.354;15.754;2024-01-07T10:21:31;-3.50;1.00
13375;DHT22;6756;51.354;15.754;2024-01-07T10:25:32;-3.60;1.00
13375;DHT22;6756;51.354;15.754;2024-01-07T10:29:33;-3.60;1.00
13375;DHT22;6756;51.354;15.754;2024-01-07T10:33:34;-3.50;1.00
13375;DHT22;6756;51.354;15.754;2024-01-07T10:37:35;-3.50;1.00
13375;DHT22;6756;51.354;15.754;2024-01-07T10:41:37;-3.60;1.00
13375;DHT22;6756;51.354;15.754;2024-01-07T10:45:39;-3.70;1.00
13375;DHT22;6756;51.354;15.754;2024-01-07T10:49:40;-3.90;1.00
13375;DHT22;6756;51.354;15.754;2024-01-07T10:53:48;-3.90;1.00
13375;DHT22;6756;51.354;15.754;2024-01-07T10:57:53;-4.00;1.00
13375;DHT22;6756;51.354;15.754;2024-01-07T11:01:56;-4.00;1.00
13375;DHT22;6756;51.354;15.754;2024-01-07T11:10:31;-4.00;1.00
13375;DHT22;6756;51.354;15.754;2024-01-07T11:14:35;-3.90;1.00
13375;DHT22;6756;51.354;15.754;2024-01-07T11:18:47;-3.80;1.00
13375;DHT22;6756;51.354;15.754;2024-01-07T11:22:51;-3.70;1.00
13375;DHT22;6756;51.354;15.754;2024-01-07T11:26:52;-3.60;1.00
13375;DHT22;6756;51.354;15.754;2024-01-07T11:30:54;-3.60;1.00
13375;DHT22;6756;51.354;15.754;2024-01-07T11:34:55;-3.60;1.00
13375;DHT22;6756;51.354;15.754;2024-01-07T11:38:57;-3.50;1.00
13375;DHT22;6756;51.354;15.754;2024-01-07T11:42:58;-3.30;1.00
13375;DHT22;6756;51.354;15.754;2024-01-07T11:47:01;-3.20;1.00
13375;DHT22;6756;51.354;15.754;2024-01-07T11:51:02;-3.10;1.00
13375;DHT22;6756;51.354;15.754;2024-01-07T11:55:04;-3.00;1.00
13375;DHT22;6756;51.354;15.754;2024-01-07T11:59:06;-2.90;1.00
13375;DHT22;6756;51.354;15.754;2024-01-07T12:03:07;-3.10;1.00
13375;DHT22;6756;51.354;15.754;2024-01-07T12:07:11;-3.40;1.00
13375;DHT22;6756;51.354;15.754;2024-01-07T12:11:15;-3.40;1.00
13375;DHT22;6756;51.354;15.754;2024-01-07T12:15:17;-3.60;1.00
13375;DHT22;6756;51.354;15.754;2024-01-07T12:19:21;-3.60;1.00
13375;DHT22;6756;51.354;15.754;2024-01-07T12:23:25;-3.70;1.00
13375;DHT22;6756;51.354;15.754;2024-01-07T12:27:26;-3.90;1.00
13375;DHT22;6756;51.354;15.754;2024-01-07T12:31:27;-4.00;1.00
13375;DHT22;6756;51.354;15.754;2024-01-07T12:35:28;-4.00;1.00
13375;DHT22;6756;51.354;15.754;2024-01-07T12:39:29;-4.00;1.00
13375;DHT22;6756;51.354;15.754;2024-01-07T12:43:33;-3.80;1.00
13375;DHT22;6756;51.354;15.754;2024-01-07T12:47:34;-3.70;1.00
13375;DHT22;6756;51.354;15.754;2024-01-07T12:51:38;-3.60;1.00
13375;DHT22;6756;51.354;15.754;2024-01-07T12:55:39;-3.50;1.00
13375;DHT22;6756;51.354;15.754;2024-01-07T12:59:40;-3.40;1.00
13375;DHT22;6756;51.354;15.754;2024-01-07T13:03:41;-3.40;1.00
13375;DHT22;6756;51.354;15.754;2024-01-07T13:07:43;-3.40;1.00
13375;DHT22;6756;51.354;15.754;2024-01-07T13:11:43;-3.40;1.00
13375;DHT22;6756;51.354;15.754;2024-01-07T13:15:44;-3.20;1.00
13375;DHT22;6756;51.354;15.754;2024-01-07T13:19:45;-3.30;1.00
13375;DHT22;6756;51.354;15.754;2024-01-07T13:23:47;-3.50;1.00
13375;DHT22;6756;51.354;15.754;2024-01-07T13:27:49;-3.40;1.00
13375;DHT22;6756;51.354;15.754;2024-01-07T13:31:49;-3.40;1.00
13375;DHT22;6756;51.354;15.754;2024-01-07T13:35:50;-3.40;1.00
13375;DHT22;6756;51.354;15.754;2024-01-07T13:39:51;-3.50;1.00
13375;DHT22;6756;51.354;15.754;2024-01-07T13:43:52;-3.50;1.00
13375;DHT22;6756;51.354;15.754;2024-01-07T13:47:55;-3.50;1.00
13375;DHT22;6756;51.354;15.754;2024-01-07T13:51:57;-3.60;1.00
13375;DHT22;6756;51.354;15.754;2024-01-07T13:55:58;-3.70;1.00
13375;DHT22;6756;51.354;15.754;2024-01-07T13:59:58;-3.70;1.00
13375;DHT22;6756;51.354;15.754;2024-01-07T14:03:59;-3.60;1.00
13375;DHT22;6756;51.354;15.754;2024-01-07T14:08:00;-3.60;1.00
13375;DHT22;6756;51.354;15.754;2024-01-07T14:12:01;-3.60;1.00
13375;DHT22;6756;51.354;15.754;2024-01-07T14:16:03;-3.60;1.00
13375;DHT22;6756;51.354;15.754;2024-01-07T14:20:05;-3.70;1.00
13375;DHT22;6756;51.354;15.754;2024-01-07T14:24:07;-3.80;1.00
13375;DHT22;6756;51.354;15.754;2024-01-07T14:28:08;-3.90;1.00
13375;DHT22;6756;51.354;15.754;2024-01-07T14:32:09;-3.90;1.00
13375;DHT22;6756;51.354;15.754;2024-01-07T14:36:16;-3.90;1.00
13375;DHT22;6756;51.354;15.754;2024-01-07T14:40:17;-4.00;1.00
13375;DHT22;6756;51.354;15.754;2024-01-07T14:44:18;-4.00;1.00
13375;DHT22;6756;51.354;15.754;2024-01-07T14:48:19;-4.00;1.00
13375;DHT22;6756;51.354;15.754;2024-01-07T14:52:38;-4.00;1.00
13375;DHT22;6756;51.354;15.754;2024-01-07T14:56:42;-4.20;1.00
13375;DHT22;6756;51.354;15.754;2024-01-07T15:00:43;-4.30;1.00
13375;DHT22;6756;51.354;15.754;2024-01-07T15:04:45;-4.40;1.00
13375;DHT22;6756;51.354;15.754;2024-01-07T15:08:49;-4.40;1.00
13375;DHT22;6756;51.354;15.754;2024-01-07T15:12:50;-4.40;1.00
13375;DHT22;6756;51.354;15.754;2024-01-07T15:17:00;-4.50;1.00
13375;DHT22;6756;51.354;15.754;2024-01-07T15:21:04;-4.60;1.00
13375;DHT22;6756;51.354;15.754;2024-01-07T15:25:05;-4.60;1.00
13375;DHT22;6756;51.354;15.754;2024-01-07T15:29:07;-4.60;1.00
13375;DHT22;6756;51.354;15.754;2024-01-07T15:33:07;-4.70;1.00
13375;DHT22;6756;51.354;15.754;2024-01-07T15:37:09;-4.70;1.00
13375;DHT22;6756;51.354;15.754;2024-01-07T15:41:10;-4.70;1.00
13375;DHT22;6756;51.354;15.754;2024-01-07T15:45:11;-4.70;1.00
13375;DHT22;6756;51.354;15.754;2024-01-07T15:49:12;-4.70;1.00
13375;DHT22;6756;51.354;15.754;2024-01-07T15:53:15;-4.70;1.00
13375;DHT22;6756;51.354;15.754;2024-01-07T15:57:16;-4.70;1.00
13375;DHT22;6756;51.354;15.754;2024-01-07T16:01:17;-4.60;1.00
13375;DHT22;6756;51.354;15.754;2024-01-07T16:05:18;-4.70;1.00
13375;DHT22;6756;51.354;15.754;2024-01-07T16:09:24;-4.60;1.00
13375;DHT22;6756;51.354;15.754;2024-01-07T16:13:28;-4.60;1.00
13375;DHT22;6756;51.354;15.754;2024-01-07T16:17:32;-4.50;1.00
13375;DHT22;6756;51.354;15.754;2024-01-07T16:21:36;-4.60;1.00
13375;DHT22;6756;51.354;15.754;2024-01-07T16:25:37;-4.50;1.00
13375;DHT22;6756;51.354;15.754;2024-01-07T16:29:38;-4.50;1.00
13375;DHT22;6756;51.354;15.754;2024-01-07T16:33:39;-4.70;1.00
13375;DHT22;6756;51.354;15.754;2024-01-07T16:37:41;-4.70;1.00
13375;DHT22;6756;51.354;15.754;2024-01-07T16:41:42;-4.90;1.00
13375;DHT22;6756;51.354;15.754;2024-01-07T16:45:45;-5.20;1.00
13375;DHT22;6756;51.354;15.754;2024-01-07T16:49:46;-5.30;1.00
13375;DHT22;6756;51.354;15.754;2024-01-07T16:53:47;-5.40;1.00
13375;DHT22;6756;51.354;15.754;2024-01-07T16:57:48;-5.50;1.00
13375;DHT22;6756;51.354;15.754;2024-01-07T17:01:49;-5.50;1.00
13375;DHT22;6756;51.354;15.754;2024-01-07T17:05:50;-5.60;1.00
13375;DHT22;6756;51.354;15.754;2024-01-07T17:09:51;-5.60;1.00
13375;DHT22;6756;51.354;15.754;2024-01-07T17:13:53;-5.70;1.00
13375;DHT22;6756;51.354;15.754;2024-01-07T17:17:55;-5.70;1.00
13375;DHT22;6756;51.354;15.754;2024-01-07T17:21:58;-5.80;1.00
13375;DHT22;6756;51.354;15.754;2024-01-07T17:26:02;-5.90;1.00
13375;DHT22;6756;51.354;15.754;2024-01-07T17:30:03;-6.00;1.00
13375;DHT22;6756;51.354;15.754;2024-01-07T17:34:04;-6.10;1.00
13375;DHT22;6756;51.354;15.754;2024-01-07T17:38:05;-6.10;1.00
13375;DHT22;6756;51.354;15.754;2024-01-07T17:42:06;-6.10;1.00
13375;DHT22;6756;51.354;15.754;2024-01-07T17:46:08;-6.00;1.00
13375;DHT22;6756;51.354;15.754;2024-01-07T17:50:10;-6.00;1.00
13375;DHT22;6756;51.354;15.754;2024-01-07T17:54:11;-6.10;1.00
13375;DHT22;6756;51.354;15.754;2024-01-07T17:58:12;-6.10;1.00
13375;DHT22;6756;51.354;15.754;2024-01-07T18:02:14;-6.20;1.00
13375;DHT22;6756;51.354;15.754;2024-01-07T18:06:14;-6.20;1.00
13375;DHT22;6756;51.354;15.754;2024-01-07T18:10:16;-6.20;1.00
13375;DHT22;6756;51.354;15.754;2024-01-07T18:14:17;-6.20;1.00
13375;DHT22;6756;51.354;15.754;2024-01-07T18:18:19;-6.20;1.00
13375;DHT22;6756;51.354;15.754;2024-01-07T18:22:20;-6.10;1.00
13375;DHT22;6756;51.354;15.754;2024-01-07T18:26:21;-6.00;1.00
13375;DHT22;6756;51.354;15.754;2024-01-07T18:30:24;-6.10;1.00
13375;DHT22;6756;51.354;15.754;2024-01-07T18:34:34;-6.10;1.00
13375;DHT22;6756;51.354;15.754;2024-01-07T18:38:39;-6.20;1.00
13375;DHT22;6756;51.354;15.754;2024-01-07T18:42:44;-6.30;1.00
13375;DHT22;6756;51.354;15.754;2024-01-07T18:46:45;-6.40;1.00
13375;DHT22;6756;51.354;15.754;2024-01-07T18:50:46;-6.40;1.00
13375;DHT22;6756;51.354;15.754;2024-01-07T18:54:52;-6.40;1.00
13375;DHT22;6756;51.354;15.754;2024-01-07T18:58:53;-6.50;1.00
13375;DHT22;6756;51.354;15.754;2024-01-07T19:02:54;-6.60;1.00
13375;DHT22;6756;51.354;15.754;2024-01-07T19:06:58;-6.70;1.00
13375;DHT22;6756;51.354;15.754;2024-01-07T19:10:58;-6.80;1.00
13375;DHT22;6756;51.354;15.754;2024-01-07T19:15:08;-6.90;1.00
13375;DHT22;6756;51.354;15.754;2024-01-07T19:19:12;-7.00;1.00
13375;DHT22;6756;51.354;15.754;2024-01-07T19:23:13;-7.10;1.00
13375;DHT22;6756;51.354;15.754;2024-01-07T19:27:14;-7.10;1.00
13375;DHT22;6756;51.354;15.754;2024-01-07T19:31:17;-7.10;1.00
13375;DHT22;6756;51.354;15.754;2024-01-07T19:35:19;-7.10;1.00
13375;DHT22;6756;51.354;15.754;2024-01-07T19:39:20;-7.10;1.00
13375;DHT22;6756;51.354;15.754;2024-01-07T19:43:22;-7.00;1.00
13375;DHT22;6756;51.354;15.754;2024-01-07T19:47:23;-7.00;1.00
13375;DHT22;6756;51.354;15.754;2024-01-07T19:51:24;-7.00;1.00
13375;DHT22;6756;51.354;15.754;2024-01-07T19:55:25;-7.00;1.00
13375;DHT22;6756;51.354;15.754;2024-01-07T19:59:26;-7.00;1.00
13375;DHT22;6756;51.354;15.754;2024-01-07T20:03:27;-7.10;1.00
13375;DHT22;6756;51.354;15.754;2024-01-07T20:07:28;-7.10;1.00
13375;DHT22;6756;51.354;15.754;2024-01-07T20:11:29;-7.10;1.00
13375;DHT22;6756;51.354;15.754;2024-01-07T20:15:30;-7.10;1.00
13375;DHT22;6756;51.354;15.754;2024-01-07T20:19:31;-7.10;1.00
13375;DHT22;6756;51.354;15.754;2024-01-07T20:23:34;-7.10;1.00
13375;DHT22;6756;51.354;15.754;2024-01-07T20:27:34;-7.10;1.00
13375;DHT22;6756;51.354;15.754;2024-01-07T20:31:35;-7.20;1.00
13375;DHT22;6756;51.354;15.754;2024-01-07T20:35:37;-7.20;1.00
13375;DHT22;6756;51.354;15.754;2024-01-07T20:39:37;-7.30;1.00
13375;DHT22;6756;51.354;15.754;2024-01-07T20:43:39;-7.40;1.00
13375;DHT22;6756;51.354;15.754;2024-01-07T20:47:40;-7.30;1.00
13375;DHT22;6756;51.354;15.754;2024-01-07T20:51:41;-7.30;1.00
13375;DHT22;6756;51.354;15.754;2024-01-07T20:55:42;-7.30;1.00
13375;DHT22;6756;51.354;15.754;2024-01-07T20:59:43;-7.30;1.00
13375;DHT22;6756;51.354;15.754;2024-01-07T21:03:44;-7.30;1.00
13375;DHT22;6756;51.354;15.754;2024-01-07T21:07:46;-7.30;1.00
13375;DHT22;6756;51.354;15.754;2024-01-07T21:11:48;-7.30;1.00
13375;DHT22;6756;51.354;15.754;2024-01-07T21:15:49;-7.20;1.00
13375;DHT22;6756;51.354;15.754;2024-01-07T21:19:49;-7.30;1.00
13375;DHT22;6756;51.354;15.754;2024-01-07T21:23:50;-7.30;1.00
13375;DHT22;6756;51.354;15.754;2024-01-07T21:27:52;-7.30;1.00
13375;DHT22;6756;51.354;15.754;2024-01-07T21:31:54;-7.30;1.00
13375;DHT22;6756;51.354;15.754;2024-01-07T21:35:55;-7.40;1.00
13375;DHT22;6756;51.354;15.754;2024-01-07T21:39:59;-7.40;1.00
13375;DHT22;6756;51.354;15.754;2024-01-07T21:44:00;-7.50;1.00
13375;DHT22;6756;51.354;15.754;2024-01-07T21:48:00;-7.50;1.00
13375;DHT22;6756;51.354;15.754;2024-01-07T21:52:01;-7.60;1.00
13375;DHT22;6756;51.354;15.754;2024-01-07T21:56:02;-7.60;1.00
13375;DHT22;6756;51.354;15.754;2024-01-07T22:00:05;-7.60;1.00
13375;DHT22;6756;51.354;15.754;2024-01-07T22:04:09;-7.60;1.00
13375;DHT22;6756;51.354;15.754;2024-01-07T22:08:10;-7.60;1.00
13375;DHT22;6756;51.354;15.754;2024-01-07T22:12:11;-7.60;1.00
13375;DHT22;6756;51.354;15.754;2024-01-07T22:16:15;-7.60;1.00
13375;DHT22;6756;51.354;15.754;2024-01-07T22:20:16;-7.60;1.00
13375;DHT22;6756;51.354;15.754;2024-01-07T22:24:18;-7.60;1.00
13375;DHT22;6756;51.354;15.754;2024-01-07T22:28:21;-7.70;1.00
13375;DHT22;6756;51.354;15.754;2024-01-07T22:32:22;-7.70;1.00
13375;DHT22;6756;51.354;15.754;2024-01-07T22:36:23;-7.90;1.00
13375;DHT22;6756;51.354;15.754;2024-01-07T22:40:23;-7.90;1.00
13375;DHT22;6756;51.354;15.754;2024-01-07T22:44:24;-7.80;1.00
13375;DHT22;6756;51.354;15.754;2024-01-07T22:48:25;-7.80;1.00
13375;DHT22;6756;51.354;15.754;2024-01-07T22:52:31;-7.80;1.00
13375;DHT22;6756;51.354;15.754;2024-01-07T22:56:32;-7.80;1.00
13375;DHT22;6756;51.354;15.754;2024-01-07T23:00:33;-7.80;1.00
13375;DHT22;6756;51.354;15.754;2024-01-07T23:04:34;-7.80;1.00
13375;DHT22;6756;51.354;15.754;2024-01-07T23:08:35;-7.90;1.00
13375;DHT22;6756;51.354;15.754;2024-01-07T23:12:39;-7.90;1.00
13375;DHT22;6756;51.354;15.754;2024-01-07T23:16:40;-8.00;1.00
13375;DHT22;6756;51.354;15.754;2024-01-07T23:20:41;-8.10;1.00
13375;DHT22;6756;51.354;15.754;2024-01-07T23:24:42;-8.10;1.00
13375;DHT22;6756;51.354;15.754;2024-01-07T23:28:43;-8.00;1.00
13375;DHT22;6756;51.354;15.754;2024-01-07T23:32:43;-8.00;1.00
13375;DHT22;6756;51.354;15.754;2024-01-07T23:36:44;-7.90;1.00
13375;DHT22;6756;51.354;15.754;2024-01-07T23:40:47;-7.90;1.00
13375;DHT22;6756;51.354;15.754;2024-01-07T23:44:48;-7.90;1.00
13375;DHT22;6756;51.354;15.754;2024-01-07T23:48:49;-8.10;1.00
13375;DHT22;6756;51.354;15.754;2024-01-07T23:52:49;-8.10;1.00
13375;DHT22;6756;51.354;15.754;2024-01-07T23:56:51;-8.10;1.00
